createdAt,value
2023-03-15T00:02:10.538Z,501.00
2023-03-15T00:06:10.609Z,500.00
2023-03-15T00:10:10.696Z,501.00
2023-03-15T00:14:10.865Z,501.00
2023-03-15T00:18:10.992Z,501.00
2023-03-15T00:22:11.131Z,502.00
2023-03-15T00:26:11.289Z,502.00
2023-03-15T00:30:11.396Z,501.00
2023-03-15T00:34:11.559Z,502.00
2023-03-15T00:38:11.667Z,503.00
2023-03-15T00:42:11.845Z,503.00
2023-03-15T00:46:12.025Z,503.00
2023-03-15T00:50:12.104Z,501.00
2023-03-15T00:54:12.260Z,501.00
2023-03-15T00:58:12.390Z,503.00
2023-03-15T01:02:12.513Z,502.00
2023-03-15T01:06:12.674Z,502.00
2023-03-15T01:10:12.807Z,503.00
2023-03-15T01:14:12.957Z,503.00
2023-03-15T01:18:13.102Z,503.00
2023-03-15T01:22:13.261Z,500.00
2023-03-15T01:26:13.404Z,501.00
2023-03-15T01:30:13.588Z,502.00
2023-03-15T01:34:13.760Z,502.00
2023-03-15T01:38:13.894Z,502.00
2023-03-15T01:42:14.056Z,503.00
2023-03-15T01:46:14.243Z,500.00
2023-03-15T01:50:14.378Z,501.00
2023-03-15T01:54:14.559Z,503.00
2023-03-15T01:58:14.721Z,500.00
2023-03-15T02:02:15.080Z,503.00
2023-03-15T02:06:15.015Z,503.00
2023-03-15T02:10:15.156Z,502.00
2023-03-15T02:14:15.317Z,500.00
2023-03-15T02:18:15.487Z,501.00
2023-03-15T02:22:15.678Z,502.00
2023-03-15T02:26:15.850Z,503.00
2023-03-15T02:30:16.057Z,503.00
2023-03-15T02:34:16.167Z,503.00
2023-03-15T02:38:16.340Z,504.00
2023-03-15T02:42:16.509Z,506.00
2023-03-15T02:46:16.697Z,503.00
2023-03-15T02:50:16.802Z,502.00
2023-03-15T02:54:16.982Z,503.00
2023-03-15T02:58:17.161Z,502.00
2023-03-15T03:02:17.762Z,501.00
2023-03-15T03:06:17.476Z,501.00
2023-03-15T03:10:17.617Z,502.00
2023-03-15T03:14:17.814Z,502.00
2023-03-15T03:18:17.989Z,501.00
2023-03-15T03:22:18.230Z,502.00
2023-03-15T03:26:18.329Z,502.00
2023-03-15T03:30:18.537Z,501.00
2023-03-15T03:34:18.696Z,501.00
2023-03-15T03:38:18.868Z,501.00
2023-03-15T03:42:19.076Z,500.00
2023-03-15T03:46:19.267Z,501.00
2023-03-15T03:50:19.399Z,501.00
2023-03-15T03:54:19.571Z,502.00
2023-03-15T03:58:19.751Z,502.00
2023-03-15T04:02:19.973Z,503.00
2023-03-15T04:06:20.068Z,505.00
2023-03-15T04:10:20.282Z,502.00
2023-03-15T04:14:20.475Z,500.00
2023-03-15T04:18:20.641Z,500.00
2023-03-15T04:22:20.821Z,516.00
2023-03-15T04:26:21.024Z,507.00
2023-03-15T04:30:21.197Z,502.00
2023-03-15T04:34:21.431Z,501.00
2023-03-15T04:38:21.643Z,533.00
2023-03-15T04:42:21.834Z,547.00
2023-03-15T04:46:24.797Z,549.00
2023-03-15T04:50:22.018Z,550.00
2023-03-15T04:54:22.026Z,555.00
2023-03-15T04:58:21.983Z,554.00
2023-03-15T05:02:21.927Z,538.00
2023-03-15T05:06:21.880Z,552.00
2023-03-15T05:10:21.857Z,550.00
2023-03-15T05:14:21.783Z,533.00
2023-03-15T05:18:21.804Z,544.00
2023-03-15T05:22:21.754Z,544.00
2023-03-15T05:26:21.719Z,544.00
2023-03-15T05:30:21.820Z,542.00
2023-03-15T05:34:22.309Z,534.00
2023-03-15T05:38:22.072Z,535.00
2023-03-15T05:42:22.073Z,536.00
2023-03-15T05:46:21.950Z,536.00
2023-03-15T05:50:21.947Z,533.00
2023-03-15T05:54:21.880Z,536.00
2023-03-15T05:58:21.839Z,534.00
2023-03-15T06:02:21.847Z,532.00
2023-03-15T06:06:21.767Z,533.00
2023-03-15T06:10:21.769Z,532.00
2023-03-15T06:14:21.809Z,529.00
2023-03-15T06:18:22.027Z,525.00
2023-03-15T06:22:21.998Z,528.00
2023-03-15T06:26:21.951Z,525.00
2023-03-15T06:30:21.919Z,522.00
2023-03-15T06:34:21.934Z,522.00
2023-03-15T06:38:21.866Z,528.00
2023-03-15T06:42:22.305Z,544.00
2023-03-15T06:46:21.868Z,569.00
2023-03-15T06:50:21.834Z,624.00
2023-03-15T06:54:21.719Z,688.00
2023-03-15T06:58:21.785Z,792.00
2023-03-15T07:02:21.833Z,880.00
2023-03-15T07:06:21.640Z,920.00
2023-03-15T07:10:21.576Z,954.00
2023-03-15T07:14:21.815Z,971.00
2023-03-15T07:18:21.684Z,993.00
2023-03-15T07:22:21.744Z,1015.00
2023-03-15T07:26:21.834Z,1010.00
2023-03-15T07:30:21.904Z,1011.00
2023-03-15T07:34:21.926Z,1045.00
2023-03-15T07:38:22.349Z,1090.00
2023-03-15T07:42:22.330Z,1125.00
2023-03-15T07:46:21.952Z,1174.00
2023-03-15T07:50:22.311Z,1190.00
2023-03-15T07:54:22.033Z,1301.00
2023-03-15T07:58:22.340Z,1342.00
2023-03-15T08:02:21.996Z,1370.00
2023-03-15T08:06:21.917Z,1316.00
2023-03-15T08:10:21.888Z,1331.00
2023-03-15T08:14:21.854Z,1371.00
2023-03-15T08:18:21.804Z,1407.00
2023-03-15T08:22:21.752Z,1322.00
2023-03-15T08:26:21.759Z,1261.00
2023-03-15T08:30:22.374Z,1244.00
2023-03-15T08:34:22.101Z,1275.00
2023-03-15T08:38:22.376Z,1277.00
2023-03-15T08:42:22.535Z,1147.00
2023-03-15T08:46:22.893Z,1139.00
2023-03-15T08:50:23.372Z,1182.00
2023-03-15T08:54:23.126Z,1163.00
2023-03-15T08:58:23.084Z,1074.00
2023-03-15T09:02:23.439Z,1044.00
2023-03-15T09:06:23.004Z,984.00
2023-03-15T09:10:22.993Z,948.00
2023-03-15T09:14:22.991Z,907.00
2023-03-15T09:18:22.932Z,885.00
2023-03-15T09:22:38.126Z,859.00
2023-03-15T09:26:23.876Z,849.00
2023-03-15T09:30:22.839Z,806.00
2023-03-15T09:34:23.542Z,807.00
2023-03-15T09:38:22.901Z,814.00
2023-03-15T09:42:22.888Z,1514.00
2023-03-15T09:46:23.439Z,1020.00
2023-03-15T09:50:22.931Z,1037.00
2023-03-15T09:54:22.890Z,1086.00
2023-03-15T09:58:22.892Z,1120.00
2023-03-15T10:02:22.767Z,1066.00
2023-03-15T10:06:22.727Z,1060.00
2023-03-15T10:10:22.744Z,1051.00
2023-03-15T10:14:22.655Z,1055.00
2023-03-15T10:18:22.641Z,1062.00
2023-03-15T10:22:22.896Z,1062.00
2023-03-15T10:26:22.543Z,1030.00
2023-03-15T10:30:22.548Z,1043.00
2023-03-15T10:34:22.642Z,1047.00
2023-03-15T10:38:22.954Z,1041.00
2023-03-15T10:42:22.957Z,992.00
2023-03-15T10:46:23.479Z,930.00
2023-03-15T10:50:22.866Z,943.00
2023-03-15T10:54:22.949Z,1096.00
2023-03-15T10:58:24.812Z,1190.00
2023-03-15T11:02:22.782Z,1256.00
2023-03-15T11:06:22.772Z,1385.00
2023-03-15T11:10:22.937Z,1577.00
2023-03-15T11:14:22.678Z,1432.00
2023-03-15T11:18:22.644Z,1276.00
2023-03-15T11:22:22.621Z,1289.00
2023-03-15T11:26:32.351Z,1208.00
2023-03-15T11:30:23.564Z,1138.00
2023-03-15T11:34:22.548Z,1031.00
2023-03-15T11:38:22.921Z,959.00
2023-03-15T11:42:22.948Z,877.00
2023-03-15T11:46:22.521Z,985.00
2023-03-15T11:50:22.505Z,1085.00
2023-03-15T11:54:22.929Z,1191.00
2023-03-15T11:58:22.671Z,1278.00
2023-03-15T12:02:22.666Z,1322.00
2023-03-15T12:06:22.637Z,1391.00
2023-03-15T12:10:22.920Z,1473.00
2023-03-15T12:14:22.527Z,1514.00
2023-03-15T12:18:22.481Z,1061.00
2023-03-15T12:22:22.473Z,1122.00
2023-03-15T12:26:22.440Z,903.00
2023-03-15T12:30:22.473Z,983.00
2023-03-15T12:34:22.444Z,996.00
2023-03-15T12:38:22.328Z,1037.00
2023-03-15T12:42:22.309Z,1044.00
2023-03-15T12:46:22.273Z,1019.00
2023-03-15T12:50:22.460Z,998.00
2023-03-15T12:54:22.589Z,994.00
2023-03-15T12:58:22.814Z,950.00
2023-03-15T13:02:29.520Z,922.00
2023-03-15T13:06:23.970Z,905.00
2023-03-15T13:10:22.985Z,902.00
2023-03-15T13:14:23.148Z,885.00
2023-03-15T13:18:23.127Z,873.00
2023-03-15T13:22:23.088Z,854.00
2023-03-15T13:26:23.067Z,840.00
2023-03-15T13:30:23.035Z,823.00
2023-03-15T13:34:22.950Z,808.00
2023-03-15T13:38:22.953Z,785.00
2023-03-15T13:42:22.884Z,776.00
2023-03-15T13:46:23.076Z,783.00
2023-03-15T13:50:22.832Z,763.00
2023-03-15T13:54:22.798Z,751.00
2023-03-15T13:58:22.994Z,735.00
2023-03-15T14:02:22.979Z,728.00
2023-03-15T14:06:22.937Z,704.00
2023-03-15T14:10:22.902Z,695.00
2023-03-15T14:14:22.883Z,664.00
2023-03-15T14:18:22.880Z,661.00
2023-03-15T14:22:22.818Z,655.00
2023-03-15T14:26:22.771Z,658.00
2023-03-15T14:30:22.736Z,648.00
2023-03-15T14:34:22.679Z,645.00
2023-03-15T14:38:22.662Z,637.00
2023-03-15T14:42:22.658Z,627.00
2023-03-15T14:46:22.639Z,620.00
2023-03-15T14:50:22.614Z,612.00
2023-03-15T14:54:22.534Z,606.00
2023-03-15T14:58:22.481Z,599.00
2023-03-15T15:02:22.594Z,596.00
2023-03-15T15:06:22.521Z,594.00
2023-03-15T15:10:22.539Z,590.00
2023-03-15T15:14:22.492Z,582.00
2023-03-15T15:18:22.537Z,571.00
2023-03-15T15:22:23.003Z,566.00
2023-03-15T15:26:22.549Z,548.00
2023-03-15T15:30:22.559Z,544.00
2023-03-15T15:34:22.551Z,555.00
2023-03-15T15:38:22.577Z,546.00
2023-03-15T15:42:22.584Z,546.00
2023-03-15T15:46:22.708Z,541.00
2023-03-15T15:50:22.757Z,540.00
2023-03-15T15:54:22.915Z,535.00
2023-03-15T15:58:23.010Z,506.00
2023-03-15T16:02:23.397Z,517.00
2023-03-15T16:06:23.238Z,525.00
2023-03-15T16:10:23.400Z,527.00
2023-03-15T16:14:23.564Z,524.00
2023-03-15T16:18:23.744Z,522.00
2023-03-15T16:22:23.927Z,525.00
2023-03-15T16:26:24.111Z,523.00
2023-03-15T16:30:24.313Z,524.00
2023-03-15T16:34:24.498Z,525.00
2023-03-15T16:38:24.865Z,516.00
2023-03-15T16:42:24.919Z,521.00
2023-03-15T16:46:25.156Z,520.00
2023-03-15T16:50:25.124Z,518.00
2023-03-15T16:54:40.305Z,520.00
2023-03-15T16:58:25.988Z,522.00
2023-03-15T17:02:24.991Z,516.00
2023-03-15T17:06:25.176Z,514.00
2023-03-15T17:10:25.126Z,517.00
2023-03-15T17:14:25.100Z,509.00
2023-03-15T17:18:25.082Z,506.00
2023-03-15T17:22:25.083Z,510.00
2023-03-15T17:26:24.982Z,504.00
2023-03-15T17:30:24.978Z,509.00
2023-03-15T17:34:24.944Z,507.00
2023-03-15T17:38:24.917Z,507.00
2023-03-15T17:42:24.855Z,506.00
2023-03-15T17:46:24.889Z,502.00
2023-03-15T17:50:24.805Z,509.00
2023-03-15T17:54:24.772Z,507.00
2023-03-15T17:58:24.718Z,511.00
2023-03-15T18:02:24.713Z,508.00
2023-03-15T18:06:24.685Z,507.00
2023-03-15T18:10:24.619Z,507.00
2023-03-15T18:14:24.598Z,503.00
2023-03-15T18:18:24.552Z,504.00
2023-03-15T18:22:24.546Z,510.00
2023-03-15T18:26:24.512Z,507.00
2023-03-15T18:30:24.467Z,505.00
2023-03-15T18:34:24.432Z,503.00
2023-03-15T18:38:24.427Z,507.00
2023-03-15T18:42:24.367Z,509.00
2023-03-15T18:46:24.467Z,508.00
2023-03-15T18:50:24.292Z,505.00
2023-03-15T18:54:24.241Z,509.00
2023-03-15T18:58:24.210Z,505.00
2023-03-15T19:02:24.183Z,506.00
2023-03-15T19:06:24.119Z,508.00
2023-03-15T19:10:24.117Z,513.00
2023-03-15T19:14:24.221Z,508.00
2023-03-15T19:18:24.253Z,506.00
2023-03-15T19:22:24.361Z,509.00
2023-03-15T19:26:24.401Z,505.00
2023-03-15T19:30:24.458Z,511.00
2023-03-15T19:34:24.549Z,509.00
2023-03-15T19:38:24.663Z,502.00
2023-03-15T19:42:24.737Z,504.00
2023-03-15T19:46:24.892Z,510.00
2023-03-15T19:50:24.943Z,509.00
2023-03-15T19:54:25.019Z,503.00
2023-03-15T19:58:25.135Z,508.00
2023-03-15T20:02:25.254Z,504.00
2023-03-15T20:06:25.414Z,505.00
2023-03-15T20:10:25.553Z,503.00
2023-03-15T20:14:25.652Z,501.00
2023-03-15T20:18:25.813Z,506.00
2023-03-15T20:22:25.939Z,504.00
2023-03-15T20:26:26.080Z,504.00
2023-03-15T20:30:26.208Z,504.00
2023-03-15T20:34:26.371Z,507.00
2023-03-15T20:38:26.521Z,506.00
2023-03-15T20:42:26.629Z,505.00
2023-03-15T20:46:26.918Z,500.00
2023-03-15T20:50:26.921Z,502.00
2023-03-15T20:54:27.062Z,505.00
2023-03-15T20:58:27.170Z,503.00
2023-03-15T21:02:27.332Z,504.00
2023-03-15T21:06:27.473Z,502.00
2023-03-15T21:10:27.601Z,502.00
2023-03-15T21:14:27.736Z,501.00
2023-03-15T21:18:27.878Z,504.00
2023-03-15T21:22:27.984Z,505.00
2023-03-15T21:26:28.079Z,503.00
2023-03-15T21:30:28.241Z,503.00
2023-03-15T21:34:28.348Z,503.00
2023-03-15T21:38:28.456Z,500.00
2023-03-15T21:42:28.578Z,503.00
2023-03-15T21:46:28.762Z,504.00
2023-03-15T21:50:28.805Z,500.00
2023-03-15T21:54:28.928Z,504.00
2023-03-15T21:58:29.044Z,503.00
2023-03-15T22:02:29.170Z,501.00
2023-03-15T22:06:29.357Z,507.00
2023-03-15T22:10:29.436Z,502.00
2023-03-15T22:14:29.601Z,503.00
2023-03-15T22:18:29.714Z,502.00
2023-03-15T22:22:29.870Z,503.00
2023-03-15T22:26:29.997Z,503.00
2023-03-15T22:30:30.161Z,503.00
2023-03-15T22:34:30.296Z,503.00
2023-03-15T22:38:30.417Z,502.00
2023-03-15T22:42:30.578Z,502.00
2023-03-15T22:46:32.530Z,502.00
2023-03-15T22:50:30.641Z,504.00
2023-03-15T22:54:30.676Z,503.00
2023-03-15T22:58:30.586Z,503.00
2023-03-15T23:02:30.536Z,503.00
2023-03-15T23:06:30.541Z,501.00
2023-03-15T23:10:30.492Z,501.00
2023-03-15T23:14:30.427Z,501.00
2023-03-15T23:18:30.403Z,502.00
2023-03-15T23:22:30.421Z,503.00
2023-03-15T23:26:30.611Z,501.00
2023-03-15T23:30:30.813Z,501.00
2023-03-15T23:34:30.955Z,500.00
2023-03-15T23:38:31.147Z,503.00
2023-03-15T23:42:31.367Z,503.00
2023-03-15T23:46:31.588Z,504.00
2023-03-15T23:50:31.810Z,502.00
2023-03-15T23:54:31.959Z,502.00
2023-03-15T23:58:32.169Z,503.00
